Monday, January 21, 2019, 5:33 PM EST
Back to Local

KLGA, New York La Guardia Airport

Location: Astoria, NY, United States Lat: 40.783
Local Time: 5:33 PM EST (22:33 GMT) Lon: -73.883
Time Zone: US/Eastern Elev: 22 ft

Show me the last for .
Show Decoded

2019-01-21 16:51 METAR KLGA 212151Z 30032G43KT 270V330 10SM FEW048 SCT250 M09/M19 A3015 RMK AO2
                 PK WND 28043/2151 SLP208 T10941189 $ =
2019-01-21 15:51 METAR KLGA 212051Z 29024G35KT 10SM FEW048 SCT250 M09/M19 A3011 RMK AO2 PK WND
                 30037/2037 SLP195 T10941194 53008 $ =
2019-01-21 14:51 METAR KLGA 211951Z 29019G33KT 10SM FEW048 M09/M19 A3009 RMK AO2 PK WND
                 31038/1916 SLP189 T10941194 $ =
2019-01-21 13:51 METAR KLGA 211851Z 31027G36KT 10SM BKN048 BKN140 BKN260 M10/M19 A3008 RMK AO2 PK
                 WND 31039/1830 SLP184 T11001189 $ =
2019-01-21 12:51 METAR KLGA 211751Z 29025G33KT 10SM SCT046 BKN140 BKN260 M11/M19 A3009 RMK AO2 PK
                 WND 31038/1702 SLP187 T11111194 11111 21150 51014 $ =
2019-01-21 11:51 METAR KLGA 211651Z 30024G36KT 10SM FEW038 SCT140 BKN260 M12/M19 A3006 RMK AO2 PK
                 WND 29036/1630 SLP179 T11221194 $ =
2019-01-21 10:51 METAR KLGA 211551Z 30021G34KT 10SM SCT038 SCT120 BKN260 M13/M21 A3007 RMK AO2 PK
                 WND 29036/1455 SLP181 VIRGA S T11281206 $ =
2019-01-21 09:51 METAR KLGA 211451Z 29022G31KT 10SM FEW037 SCT090 BKN250 M14/M21 A3004 RMK AO2 PK
                 WND 30036/1421 SLP173 T11391211 51031 $ =
2019-01-21 08:51 METAR KLGA 211351Z 30019G34KT 10SM FEW010 SCT036 M14/M21 A3002 RMK AO2 PK WND
                 31038/1326 SLP165 VIRGA S-W FU FEW010 FU PLUME E DRFTG SE T11441211 $ =
2019-01-21 07:51 METAR KLGA 211251Z 30025G32KT 10SM BKN034 M14/M21 A2999 RMK AO2 PK WND
                 31036/1218 SLP155 T11441211 $ =
2019-01-21 06:51 METAR KLGA 211151Z 30023G30KT 10SM BKN035 M14/M21 A2995 RMK AO2 PK WND
                 32031/1104 SLP142 70020 T11391206 11094 21139 53027 $ =
2019-01-21 05:51 METAR KLGA 211051Z 29023G29KT 10SM SCT037 M13/M20 A2993 RMK AO2 PK WND
                 31038/1029 SLP133 T11331200 $ =
2019-01-21 04:51 METAR KLGA 210951Z 30022G27KT 10SM BKN038 M13/M19 A2989 RMK AO2 PK WND
                 29037/0927 SLP122 T11281194 $ =
2019-01-21 03:51 METAR KLGA 210851Z 29022G30KT 10SM SCT036 M12/M18 A2987 RMK AO2 PK WND
                 31038/0753 SLP115 T11221183 51024 $ =
2019-01-21 02:51 METAR KLGA 210751Z 31029G42KT 10SM FEW035 M11/M18 A2986 RMK AO2 PK WND
                 32042/0737 SLP111 T11111178 $ =
2019-01-21 01:51 METAR KLGA 210651Z 30023G34KT 10SM BKN037 M11/M17 A2984 RMK AO2 PK WND
                 32039/0617 SLP105 T11061172 $ =
2019-01-21 00:51 METAR KLGA 210551Z 32023G36KT 10SM SCT037 M09/M16 A2980 RMK AO2 PK WND
                 31037/0500 SLP091 T10941161 11067 21094 51032 $ =
2019-01-20 23:51 METAR KLGA 210451Z 30025G31KT 10SM SCT035 M09/M16 A2978 RMK AO2 PK WND
                 30034/0436 SLP082 T10891156 400441089 $ =
2019-01-20 22:51 METAR KLGA 210351Z 31018G27KT 10SM SCT035 M09/M14 A2975 RMK AO2 PK WND
                 31036/0312 SLP073 T10891144 $ =
2019-01-20 21:51 METAR KLGA 210251Z 32025G38KT 10SM FEW035 M09/M15 A2971 RMK AO2 PK WND
                 31043/0240 SLP059 T10891150 51035 $ =
2019-01-20 20:51 METAR KLGA 210151Z 30028G37KT 10SM FEW035 M08/M14 A2968 RMK AO2 PK WND
                 30038/0123 SLP050 T10781144 $ =
2019-01-20 19:51 METAR KLGA 210051Z 32020G35KT 10SM FEW035 M08/M14 A2966 RMK AO2 PK WND
                 31042/0022 SLP044 T10781139 $ =
2019-01-20 18:51 METAR KLGA 202351Z 32027G35KT 10SM SCT035 M07/M13 A2960 RMK AO2 PK WND
                 31041/2323 SLP024 T10671133 10033 21067 51063 $ =
2019-01-20 17:51 METAR KLGA 202251Z 31029G39KT 10SM SCT035 M06/M12 A2955 RMK AO2 PK WND
                 30039/2242 SLP007 T10561117 $ =

Support USWX by starting your Amazon purchase here.